sensor_id;sensor_type;location;lat;lon;timestamp;temperature;humidity
1700;DHT22;847;48.058;7.810;2022-08-03T00:00:57;21.00;84.50
1700;DHT22;847;48.058;7.810;2022-08-03T00:03:24;21.00;85.20
1700;DHT22;847;48.058;7.810;2022-08-03T00:05:50;21.00;84.90
1700;DHT22;847;48.058;7.810;2022-08-03T00:08:17;21.10;85.30
1700;DHT22;847;48.058;7.810;2022-08-03T00:10:44;21.10;85.00
1700;DHT22;847;48.058;7.810;2022-08-03T00:13:13;21.00;84.80
1700;DHT22;847;48.058;7.810;2022-08-03T00:15:40;21.00;85.00
1700;DHT22;847;48.058;7.810;2022-08-03T00:18:07;20.90;85.00
1700;DHT22;847;48.058;7.810;2022-08-03T00:20:34;20.90;85.30
1700;DHT22;847;48.058;7.810;2022-08-03T00:23:03;20.90;85.40
1700;DHT22;847;48.058;7.810;2022-08-03T00:25:30;21.00;85.00
1700;DHT22;847;48.058;7.810;2022-08-03T00:27:56;20.90;85.20
1700;DHT22;847;48.058;7.810;2022-08-03T00:30:25;20.90;85.50
1700;DHT22;847;48.058;7.810;2022-08-03T00:32:51;20.80;86.00
1700;DHT22;847;48.058;7.810;2022-08-03T00:35:18;20.80;85.50
1700;DHT22;847;48.058;7.810;2022-08-03T00:37:45;20.60;86.00
1700;DHT22;847;48.058;7.810;2022-08-03T00:40:13;20.50;86.40
1700;DHT22;847;48.058;7.810;2022-08-03T00:42:50;20.60;86.60
1700;DHT22;847;48.058;7.810;2022-08-03T00:45:19;20.70;86.30
1700;DHT22;847;48.058;7.810;2022-08-03T00:47:47;20.70;86.00
1700;DHT22;847;48.058;7.810;2022-08-03T00:50:15;20.70;86.60
1700;DHT22;847;48.058;7.810;2022-08-03T00:52:48;20.60;86.30
1700;DHT22;847;48.058;7.810;2022-08-03T00:55:15;20.70;86.30
1700;DHT22;847;48.058;7.810;2022-08-03T00:57:42;20.70;86.30
1700;DHT22;847;48.058;7.810;2022-08-03T01:00:11;20.70;86.60
1700;DHT22;847;48.058;7.810;2022-08-03T01:02:38;20.60;86.40
1700;DHT22;847;48.058;7.810;2022-08-03T01:05:07;20.50;86.50
1700;DHT22;847;48.058;7.810;2022-08-03T01:07:41;20.50;86.80
1700;DHT22;847;48.058;7.810;2022-08-03T01:10:16;20.60;87.10
1700;DHT22;847;48.058;7.810;2022-08-03T01:12:55;20.50;87.70
1700;DHT22;847;48.058;7.810;2022-08-03T01:15:27;20.40;87.60
1700;DHT22;847;48.058;7.810;2022-08-03T01:17:58;20.20;87.20
1700;DHT22;847;48.058;7.810;2022-08-03T01:20:33;20.10;87.40
1700;DHT22;847;48.058;7.810;2022-08-03T01:23:32;20.10;87.50
1700;DHT22;847;48.058;7.810;2022-08-03T01:26:08;20.10;87.30
1700;DHT22;847;48.058;7.810;2022-08-03T01:31:39;20.20;87.60
1700;DHT22;847;48.058;7.810;2022-08-03T01:34:11;20.20;87.50
1700;DHT22;847;48.058;7.810;2022-08-03T01:36:41;20.20;87.40
1700;DHT22;847;48.058;7.810;2022-08-03T01:39:09;20.20;87.20
1700;DHT22;847;48.058;7.810;2022-08-03T01:41:41;20.20;87.60
1700;DHT22;847;48.058;7.810;2022-08-03T01:44:09;20.10;87.50
1700;DHT22;847;48.058;7.810;2022-08-03T01:46:39;20.10;87.60
1700;DHT22;847;48.058;7.810;2022-08-03T01:49:07;20.10;88.50
1700;DHT22;847;48.058;7.810;2022-08-03T01:51:37;20.10;89.00
1700;DHT22;847;48.058;7.810;2022-08-03T01:54:06;20.10;89.10
1700;DHT22;847;48.058;7.810;2022-08-03T01:56:34;20.00;88.90
1700;DHT22;847;48.058;7.810;2022-08-03T01:59:02;19.90;89.30
1700;DHT22;847;48.058;7.810;2022-08-03T02:01:30;20.00;89.20
1700;DHT22;847;48.058;7.810;2022-08-03T02:03:59;19.90;89.20
1700;DHT22;847;48.058;7.810;2022-08-03T02:06:29;19.90;89.10
1700;DHT22;847;48.058;7.810;2022-08-03T02:08:58;20.00;89.40
1700;DHT22;847;48.058;7.810;2022-08-03T02:11:27;19.90;89.50
1700;DHT22;847;48.058;7.810;2022-08-03T02:13:57;19.90;89.70
1700;DHT22;847;48.058;7.810;2022-08-03T02:16:26;19.90;89.80
1700;DHT22;847;48.058;7.810;2022-08-03T02:18:54;19.90;89.70
1700;DHT22;847;48.058;7.810;2022-08-03T02:21:24;19.80;89.90
1700;DHT22;847;48.058;7.810;2022-08-03T02:23:52;19.80;90.10
1700;DHT22;847;48.058;7.810;2022-08-03T02:26:19;19.80;89.80
1700;DHT22;847;48.058;7.810;2022-08-03T02:28:50;19.70;89.50
1700;DHT22;847;48.058;7.810;2022-08-03T02:31:20;19.80;89.60
1700;DHT22;847;48.058;7.810;2022-08-03T02:33:50;19.70;89.70
1700;DHT22;847;48.058;7.810;2022-08-03T02:36:21;19.70;89.90
1700;DHT22;847;48.058;7.810;2022-08-03T02:38:52;19.70;89.90
1700;DHT22;847;48.058;7.810;2022-08-03T02:41:23;19.60;89.80
1700;DHT22;847;48.058;7.810;2022-08-03T02:43:53;19.60;89.70
1700;DHT22;847;48.058;7.810;2022-08-03T02:46:24;19.60;89.60
1700;DHT22;847;48.058;7.810;2022-08-03T02:48:54;19.60;89.70
1700;DHT22;847;48.058;7.810;2022-08-03T02:51:23;19.60;89.80
1700;DHT22;847;48.058;7.810;2022-08-03T02:53:53;19.60;90.10
1700;DHT22;847;48.058;7.810;2022-08-03T02:56:21;19.60;90.10
1700;DHT22;847;48.058;7.810;2022-08-03T02:58:49;19.60;90.20
1700;DHT22;847;48.058;7.810;2022-08-03T03:01:18;19.50;90.20
1700;DHT22;847;48.058;7.810;2022-08-03T03:03:45;19.50;90.60
1700;DHT22;847;48.058;7.810;2022-08-03T03:06:15;19.50;90.60
1700;DHT22;847;48.058;7.810;2022-08-03T03:08:42;19.50;90.70
1700;DHT22;847;48.058;7.810;2022-08-03T03:11:12;19.50;90.80
1700;DHT22;847;48.058;7.810;2022-08-03T03:13:41;19.50;90.80
1700;DHT22;847;48.058;7.810;2022-08-03T03:16:08;19.40;90.90
1700;DHT22;847;48.058;7.810;2022-08-03T03:18:37;19.40;91.30
1700;DHT22;847;48.058;7.810;2022-08-03T03:21:07;19.40;91.10
1700;DHT22;847;48.058;7.810;2022-08-03T03:23:36;19.40;91.10
1700;DHT22;847;48.058;7.810;2022-08-03T03:26:04;19.40;91.50
1700;DHT22;847;48.058;7.810;2022-08-03T03:28:33;19.30;91.60
1700;DHT22;847;48.058;7.810;2022-08-03T03:31:03;19.20;91.80
1700;DHT22;847;48.058;7.810;2022-08-03T03:33:30;19.20;91.80
1700;DHT22;847;48.058;7.810;2022-08-03T03:35:58;19.20;91.90
1700;DHT22;847;48.058;7.810;2022-08-03T03:38:25;19.20;91.90
1700;DHT22;847;48.058;7.810;2022-08-03T03:40:52;19.20;92.00
1700;DHT22;847;48.058;7.810;2022-08-03T03:43:22;19.20;92.00
1700;DHT22;847;48.058;7.810;2022-08-03T03:45:51;19.20;92.00
1700;DHT22;847;48.058;7.810;2022-08-03T03:48:18;19.30;92.20
1700;DHT22;847;48.058;7.810;2022-08-03T03:50:45;19.30;92.00
1700;DHT22;847;48.058;7.810;2022-08-03T03:53:16;19.20;92.40
1700;DHT22;847;48.058;7.810;2022-08-03T03:55:43;19.20;92.40
1700;DHT22;847;48.058;7.810;2022-08-03T03:58:10;19.30;92.30
1700;DHT22;847;48.058;7.810;2022-08-03T04:00:37;19.20;92.40
1700;DHT22;847;48.058;7.810;2022-08-03T04:03:05;19.20;92.10
1700;DHT22;847;48.058;7.810;2022-08-03T04:05:32;19.20;92.40
1700;DHT22;847;48.058;7.810;2022-08-03T04:08:17;19.10;92.50
1700;DHT22;847;48.058;7.810;2022-08-03T04:11:18;19.10;92.50
1700;DHT22;847;48.058;7.810;2022-08-03T04:13:49;19.20;92.60
1700;DHT22;847;48.058;7.810;2022-08-03T04:16:20;19.20;92.70
1700;DHT22;847;48.058;7.810;2022-08-03T04:18:54;19.20;92.60
1700;DHT22;847;48.058;7.810;2022-08-03T04:21:23;19.10;93.00
1700;DHT22;847;48.058;7.810;2022-08-03T04:23:52;19.10;93.20
1700;DHT22;847;48.058;7.810;2022-08-03T04:26:21;19.10;93.00
1700;DHT22;847;48.058;7.810;2022-08-03T04:28:50;19.10;92.90
1700;DHT22;847;48.058;7.810;2022-08-03T04:31:20;19.10;93.20
1700;DHT22;847;48.058;7.810;2022-08-03T04:33:47;19.20;92.90
1700;DHT22;847;48.058;7.810;2022-08-03T04:36:20;19.20;92.80
1700;DHT22;847;48.058;7.810;2022-08-03T04:38:54;19.10;93.30
1700;DHT22;847;48.058;7.810;2022-08-03T04:41:26;19.10;93.50
1700;DHT22;847;48.058;7.810;2022-08-03T04:43:54;19.00;93.70
1700;DHT22;847;48.058;7.810;2022-08-03T04:46:22;19.10;93.50
1700;DHT22;847;48.058;7.810;2022-08-03T04:48:51;19.20;92.90
1700;DHT22;847;48.058;7.810;2022-08-03T04:51:20;19.20;92.70
1700;DHT22;847;48.058;7.810;2022-08-03T04:53:47;19.30;92.70
1700;DHT22;847;48.058;7.810;2022-08-03T04:56:13;19.30;92.70
1700;DHT22;847;48.058;7.810;2022-08-03T04:58:40;19.30;92.90
1700;DHT22;847;48.058;7.810;2022-08-03T05:01:07;19.30;92.30
1700;DHT22;847;48.058;7.810;2022-08-03T05:03:34;19.30;92.40
1700;DHT22;847;48.058;7.810;2022-08-03T05:06:01;19.30;92.80
1700;DHT22;847;48.058;7.810;2022-08-03T05:08:29;19.40;92.70
1700;DHT22;847;48.058;7.810;2022-08-03T05:10:55;19.40;92.60
1700;DHT22;847;48.058;7.810;2022-08-03T05:13:22;19.40;92.40
1700;DHT22;847;48.058;7.810;2022-08-03T05:15:49;19.40;92.40
1700;DHT22;847;48.058;7.810;2022-08-03T05:18:16;19.50;92.50
1700;DHT22;847;48.058;7.810;2022-08-03T05:20:42;19.50;92.60
1700;DHT22;847;48.058;7.810;2022-08-03T05:23:09;19.50;92.30
1700;DHT22;847;48.058;7.810;2022-08-03T05:25:37;19.60;92.90
1700;DHT22;847;48.058;7.810;2022-08-03T05:28:04;19.60;92.70
1700;DHT22;847;48.058;7.810;2022-08-03T05:30:31;19.70;92.50
1700;DHT22;847;48.058;7.810;2022-08-03T05:32:58;19.70;92.70
1700;DHT22;847;48.058;7.810;2022-08-03T05:35:25;19.70;92.90
1700;DHT22;847;48.058;7.810;2022-08-03T05:37:53;19.70;94.00
1700;DHT22;847;48.058;7.810;2022-08-03T05:40:29;19.70;93.60
1700;DHT22;847;48.058;7.810;2022-08-03T05:42:58;19.80;93.10
1700;DHT22;847;48.058;7.810;2022-08-03T05:45:25;19.80;93.10
1700;DHT22;847;48.058;7.810;2022-08-03T05:47:54;19.90;92.00
1700;DHT22;847;48.058;7.810;2022-08-03T05:50:21;19.90;92.30
1700;DHT22;847;48.058;7.810;2022-08-03T05:52:48;20.00;91.70
1700;DHT22;847;48.058;7.810;2022-08-03T05:55:15;20.10;91.80
1700;DHT22;847;48.058;7.810;2022-08-03T05:57:42;20.20;91.50
1700;DHT22;847;48.058;7.810;2022-08-03T06:00:13;20.20;91.00
1700;DHT22;847;48.058;7.810;2022-08-03T06:02:40;20.20;89.90
1700;DHT22;847;48.058;7.810;2022-08-03T06:05:08;20.30;89.30
1700;DHT22;847;48.058;7.810;2022-08-03T06:07:34;20.30;89.60
1700;DHT22;847;48.058;7.810;2022-08-03T06:10:03;20.40;90.70
1700;DHT22;847;48.058;7.810;2022-08-03T06:12:30;20.40;90.30
1700;DHT22;847;48.058;7.810;2022-08-03T06:15:00;20.50;89.40
1700;DHT22;847;48.058;7.810;2022-08-03T06:17:28;20.50;89.20
1700;DHT22;847;48.058;7.810;2022-08-03T06:19:55;20.50;89.30
1700;DHT22;847;48.058;7.810;2022-08-03T06:22:22;20.60;89.50
1700;DHT22;847;48.058;7.810;2022-08-03T06:24:49;20.60;89.00
1700;DHT22;847;48.058;7.810;2022-08-03T06:27:15;20.70;88.60
1700;DHT22;847;48.058;7.810;2022-08-03T06:29:42;20.80;87.80
1700;DHT22;847;48.058;7.810;2022-08-03T06:32:09;20.90;87.80
1700;DHT22;847;48.058;7.810;2022-08-03T06:34:37;20.90;87.20
1700;DHT22;847;48.058;7.810;2022-08-03T06:37:04;21.00;87.30
1700;DHT22;847;48.058;7.810;2022-08-03T06:39:30;21.00;87.10
1700;DHT22;847;48.058;7.810;2022-08-03T06:41:57;21.10;86.20
1700;DHT22;847;48.058;7.810;2022-08-03T06:44:24;21.10;85.90
1700;DHT22;847;48.058;7.810;2022-08-03T06:46:51;21.20;85.20
1700;DHT22;847;48.058;7.810;2022-08-03T06:49:17;21.20;84.70
1700;DHT22;847;48.058;7.810;2022-08-03T06:51:46;21.30;84.70
1700;DHT22;847;48.058;7.810;2022-08-03T06:54:12;21.30;85.40
1700;DHT22;847;48.058;7.810;2022-08-03T06:56:39;21.40;84.60
1700;DHT22;847;48.058;7.810;2022-08-03T06:59:06;21.50;84.00
1700;DHT22;847;48.058;7.810;2022-08-03T07:01:33;21.70;83.80
1700;DHT22;847;48.058;7.810;2022-08-03T07:03:59;21.90;83.50
1700;DHT22;847;48.058;7.810;2022-08-03T07:06:26;22.10;83.40
1700;DHT22;847;48.058;7.810;2022-08-03T07:08:54;22.20;82.50
1700;DHT22;847;48.058;7.810;2022-08-03T07:11:22;22.30;82.20
1700;DHT22;847;48.058;7.810;2022-08-03T07:13:48;22.40;82.50
1700;DHT22;847;48.058;7.810;2022-08-03T07:16:15;22.50;82.30
1700;DHT22;847;48.058;7.810;2022-08-03T07:18:42;22.60;81.80
1700;DHT22;847;48.058;7.810;2022-08-03T07:21:09;22.70;81.40
1700;DHT22;847;48.058;7.810;2022-08-03T07:23:37;22.80;80.70
1700;DHT22;847;48.058;7.810;2022-08-03T07:26:05;22.90;80.30
1700;DHT22;847;48.058;7.810;2022-08-03T07:28:32;22.90;80.10
1700;DHT22;847;48.058;7.810;2022-08-03T07:30:58;23.00;79.90
1700;DHT22;847;48.058;7.810;2022-08-03T07:33:25;23.00;80.10
1700;DHT22;847;48.058;7.810;2022-08-03T07:35:52;23.20;80.10
1700;DHT22;847;48.058;7.810;2022-08-03T07:38:18;23.30;79.80
1700;DHT22;847;48.058;7.810;2022-08-03T07:40:45;23.40;79.10
1700;DHT22;847;48.058;7.810;2022-08-03T07:43:13;23.30;78.90
1700;DHT22;847;48.058;7.810;2022-08-03T07:45:42;23.40;78.40
1700;DHT22;847;48.058;7.810;2022-08-03T07:48:09;23.50;78.80
1700;DHT22;847;48.058;7.810;2022-08-03T07:50:35;23.60;78.40
1700;DHT22;847;48.058;7.810;2022-08-03T07:53:02;23.70;76.60
1700;DHT22;847;48.058;7.810;2022-08-03T07:55:29;23.80;76.30
1700;DHT22;847;48.058;7.810;2022-08-03T07:58:03;23.80;77.10
1700;DHT22;847;48.058;7.810;2022-08-03T08:00:32;23.90;76.00
1700;DHT22;847;48.058;7.810;2022-08-03T08:02:59;23.90;76.40
1700;DHT22;847;48.058;7.810;2022-08-03T08:05:26;24.00;74.50
1700;DHT22;847;48.058;7.810;2022-08-03T08:07:53;24.10;73.80
1700;DHT22;847;48.058;7.810;2022-08-03T08:10:20;24.20;73.50
1700;DHT22;847;48.058;7.810;2022-08-03T08:12:47;24.30;73.40
1700;DHT22;847;48.058;7.810;2022-08-03T08:15:15;24.40;73.20
1700;DHT22;847;48.058;7.810;2022-08-03T08:17:44;24.40;73.20
1700;DHT22;847;48.058;7.810;2022-08-03T08:20:15;24.50;73.70
1700;DHT22;847;48.058;7.810;2022-08-03T08:22:42;24.60;74.40
1700;DHT22;847;48.058;7.810;2022-08-03T08:25:09;24.60;74.10
1700;DHT22;847;48.058;7.810;2022-08-03T08:27:41;24.60;73.60
1700;DHT22;847;48.058;7.810;2022-08-03T08:30:09;24.70;72.20
1700;DHT22;847;48.058;7.810;2022-08-03T08:32:37;24.80;71.90
1700;DHT22;847;48.058;7.810;2022-08-03T08:35:06;24.80;72.50
1700;DHT22;847;48.058;7.810;2022-08-03T08:37:33;24.90;72.10
1700;DHT22;847;48.058;7.810;2022-08-03T08:40:01;24.90;71.90
1700;DHT22;847;48.058;7.810;2022-08-03T08:42:28;25.00;72.90
1700;DHT22;847;48.058;7.810;2022-08-03T08:44:56;25.10;71.20
1700;DHT22;847;48.058;7.810;2022-08-03T08:47:27;25.10;71.90
1700;DHT22;847;48.058;7.810;2022-08-03T08:49:57;25.20;71.30
1700;DHT22;847;48.058;7.810;2022-08-03T08:52:27;25.30;71.60
1700;DHT22;847;48.058;7.810;2022-08-03T08:54:56;25.40;71.30
1700;DHT22;847;48.058;7.810;2022-08-03T08:57:27;25.50;71.10
1700;DHT22;847;48.058;7.810;2022-08-03T08:59:55;25.60;70.70
1700;DHT22;847;48.058;7.810;2022-08-03T09:02:22;25.60;71.00
1700;DHT22;847;48.058;7.810;2022-08-03T09:04:49;25.70;70.70
1700;DHT22;847;48.058;7.810;2022-08-03T09:07:17;25.70;71.30
1700;DHT22;847;48.058;7.810;2022-08-03T09:09:45;25.80;70.60
1700;DHT22;847;48.058;7.810;2022-08-03T09:12:12;25.90;70.70
1700;DHT22;847;48.058;7.810;2022-08-03T09:14:40;26.00;70.30
1700;DHT22;847;48.058;7.810;2022-08-03T09:17:06;26.30;69.00
1700;DHT22;847;48.058;7.810;2022-08-03T09:19:34;26.40;69.00
1700;DHT22;847;48.058;7.810;2022-08-03T09:22:08;26.60;68.80
1700;DHT22;847;48.058;7.810;2022-08-03T09:24:36;26.60;68.70
1700;DHT22;847;48.058;7.810;2022-08-03T09:27:07;26.60;69.60
1700;DHT22;847;48.058;7.810;2022-08-03T09:29:37;26.80;69.20
1700;DHT22;847;48.058;7.810;2022-08-03T09:32:04;26.80;68.80
1700;DHT22;847;48.058;7.810;2022-08-03T09:34:31;26.90;69.00
1700;DHT22;847;48.058;7.810;2022-08-03T09:36:58;27.00;68.80
1700;DHT22;847;48.058;7.810;2022-08-03T09:39:26;27.00;69.00
1700;DHT22;847;48.058;7.810;2022-08-03T09:42:08;27.20;67.30
1700;DHT22;847;48.058;7.810;2022-08-03T09:44:36;27.30;67.80
1700;DHT22;847;48.058;7.810;2022-08-03T09:47:03;27.30;67.80
1700;DHT22;847;48.058;7.810;2022-08-03T09:49:30;27.40;66.80
1700;DHT22;847;48.058;7.810;2022-08-03T09:52:00;27.40;67.20
1700;DHT22;847;48.058;7.810;2022-08-03T09:54:28;27.50;66.00
1700;DHT22;847;48.058;7.810;2022-08-03T09:56:55;27.70;66.10
1700;DHT22;847;48.058;7.810;2022-08-03T09:59:25;27.70;66.30
1700;DHT22;847;48.058;7.810;2022-08-03T10:01:52;27.70;66.50
1700;DHT22;847;48.058;7.810;2022-08-03T10:04:19;27.80;66.60
1700;DHT22;847;48.058;7.810;2022-08-03T10:07:01;28.00;63.70
1700;DHT22;847;48.058;7.810;2022-08-03T10:09:29;28.10;64.90
1700;DHT22;847;48.058;7.810;2022-08-03T10:11:56;28.20;63.90
1700;DHT22;847;48.058;7.810;2022-08-03T10:14:25;28.40;64.20
1700;DHT22;847;48.058;7.810;2022-08-03T10:16:56;28.40;62.70
1700;DHT22;847;48.058;7.810;2022-08-03T10:19:22;28.50;62.70
1700;DHT22;847;48.058;7.810;2022-08-03T10:21:54;28.60;62.70
1700;DHT22;847;48.058;7.810;2022-08-03T10:24:24;28.70;62.90
1700;DHT22;847;48.058;7.810;2022-08-03T10:27:01;28.70;61.90
1700;DHT22;847;48.058;7.810;2022-08-03T10:29:33;28.90;61.70
1700;DHT22;847;48.058;7.810;2022-08-03T10:32:03;29.00;60.70
1700;DHT22;847;48.058;7.810;2022-08-03T10:34:37;29.10;61.40
1700;DHT22;847;48.058;7.810;2022-08-03T10:37:09;29.10;62.20
1700;DHT22;847;48.058;7.810;2022-08-03T10:39:36;29.10;62.40
1700;DHT22;847;48.058;7.810;2022-08-03T10:42:07;29.30;62.10
1700;DHT22;847;48.058;7.810;2022-08-03T10:44:38;29.50;61.10
1700;DHT22;847;48.058;7.810;2022-08-03T10:47:06;29.50;61.20
1700;DHT22;847;48.058;7.810;2022-08-03T10:49:35;29.40;61.60
1700;DHT22;847;48.058;7.810;2022-08-03T10:52:04;29.50;61.60
1700;DHT22;847;48.058;7.810;2022-08-03T10:54:41;29.60;62.10
1700;DHT22;847;48.058;7.810;2022-08-03T10:57:47;29.80;60.30
1700;DHT22;847;48.058;7.810;2022-08-03T11:00:16;29.90;62.10
1700;DHT22;847;48.058;7.810;2022-08-03T11:03:08;30.00;60.20
1700;DHT22;847;48.058;7.810;2022-08-03T11:05:38;29.90;61.00
1700;DHT22;847;48.058;7.810;2022-08-03T11:08:25;30.00;58.90
1700;DHT22;847;48.058;7.810;2022-08-03T11:10:55;30.20;58.30
1700;DHT22;847;48.058;7.810;2022-08-03T11:13:24;30.30;58.60
1700;DHT22;847;48.058;7.810;2022-08-03T11:15:56;30.30;58.60
1700;DHT22;847;48.058;7.810;2022-08-03T11:18:23;30.30;59.70
1700;DHT22;847;48.058;7.810;2022-08-03T11:20:52;30.50;59.40
1700;DHT22;847;48.058;7.810;2022-08-03T11:23:39;30.50;58.20
1700;DHT22;847;48.058;7.810;2022-08-03T11:26:14;30.50;59.30
1700;DHT22;847;48.058;7.810;2022-08-03T11:28:42;30.50;59.90
1700;DHT22;847;48.058;7.810;2022-08-03T11:34:23;30.50;60.10
1700;DHT22;847;48.058;7.810;2022-08-03T11:37:21;30.60;60.60
1700;DHT22;847;48.058;7.810;2022-08-03T11:39:51;30.90;59.00
1700;DHT22;847;48.058;7.810;2022-08-03T11:42:37;31.00;59.50
1700;DHT22;847;48.058;7.810;2022-08-03T11:45:06;31.20;58.20
1700;DHT22;847;48.058;7.810;2022-08-03T11:47:37;31.10;57.80
1700;DHT22;847;48.058;7.810;2022-08-03T11:50:11;31.20;58.20
1700;DHT22;847;48.058;7.810;2022-08-03T11:52:40;31.30;57.40
1700;DHT22;847;48.058;7.810;2022-08-03T11:55:11;31.30;56.60
1700;DHT22;847;48.058;7.810;2022-08-03T11:57:38;31.20;57.20
1700;DHT22;847;48.058;7.810;2022-08-03T12:03:01;31.30;55.40
1700;DHT22;847;48.058;7.810;2022-08-03T12:05:41;31.40;56.20
1700;DHT22;847;48.058;7.810;2022-08-03T12:08:09;31.50;56.00
1700;DHT22;847;48.058;7.810;2022-08-03T12:10:37;31.60;55.00
1700;DHT22;847;48.058;7.810;2022-08-03T12:13:07;31.60;55.60
1700;DHT22;847;48.058;7.810;2022-08-03T12:15:35;31.60;55.80
1700;DHT22;847;48.058;7.810;2022-08-03T12:18:11;31.80;54.50
1700;DHT22;847;48.058;7.810;2022-08-03T12:20:39;31.90;55.10
1700;DHT22;847;48.058;7.810;2022-08-03T12:23:07;32.10;54.80
1700;DHT22;847;48.058;7.810;2022-08-03T12:25:34;32.20;54.30
1700;DHT22;847;48.058;7.810;2022-08-03T12:28:13;32.30;53.30
1700;DHT22;847;48.058;7.810;2022-08-03T12:30:42;32.20;53.20
1700;DHT22;847;48.058;7.810;2022-08-03T12:33:20;32.20;53.80
1700;DHT22;847;48.058;7.810;2022-08-03T12:36:02;32.10;53.20
1700;DHT22;847;48.058;7.810;2022-08-03T12:38:30;32.20;54.00
1700;DHT22;847;48.058;7.810;2022-08-03T12:40:59;32.30;54.30
1700;DHT22;847;48.058;7.810;2022-08-03T12:43:26;32.50;53.90
1700;DHT22;847;48.058;7.810;2022-08-03T12:46:10;32.60;53.40
1700;DHT22;847;48.058;7.810;2022-08-03T12:48:57;32.60;52.30
1700;DHT22;847;48.058;7.810;2022-08-03T12:51:25;32.80;52.60
1700;DHT22;847;48.058;7.810;2022-08-03T12:53:53;33.00;51.80
1700;DHT22;847;48.058;7.810;2022-08-03T12:56:20;32.90;51.30
1700;DHT22;847;48.058;7.810;2022-08-03T12:58:47;32.90;51.30
1700;DHT22;847;48.058;7.810;2022-08-03T13:01:15;32.90;52.20
1700;DHT22;847;48.058;7.810;2022-08-03T13:03:42;32.80;51.70
1700;DHT22;847;48.058;7.810;2022-08-03T13:06:11;32.70;51.10
1700;DHT22;847;48.058;7.810;2022-08-03T13:08:40;32.80;52.00
1700;DHT22;847;48.058;7.810;2022-08-03T13:11:25;32.90;52.10
1700;DHT22;847;48.058;7.810;2022-08-03T13:13:53;32.90;50.90
1700;DHT22;847;48.058;7.810;2022-08-03T13:16:20;32.90;50.10
1700;DHT22;847;48.058;7.810;2022-08-03T13:18:47;32.90;49.70
1700;DHT22;847;48.058;7.810;2022-08-03T13:21:15;32.90;51.20
1700;DHT22;847;48.058;7.810;2022-08-03T13:23:44;33.00;51.70
1700;DHT22;847;48.058;7.810;2022-08-03T13:26:11;33.10;50.50
1700;DHT22;847;48.058;7.810;2022-08-03T13:28:38;33.20;50.10
1700;DHT22;847;48.058;7.810;2022-08-03T13:31:05;33.30;49.30
1700;DHT22;847;48.058;7.810;2022-08-03T13:33:32;33.30;45.60
1700;DHT22;847;48.058;7.810;2022-08-03T13:35:59;33.50;44.60
1700;DHT22;847;48.058;7.810;2022-08-03T13:38:26;33.70;42.50
1700;DHT22;847;48.058;7.810;2022-08-03T13:40:54;33.80;42.60
1700;DHT22;847;48.058;7.810;2022-08-03T13:43:21;33.80;42.40
1700;DHT22;847;48.058;7.810;2022-08-03T13:45:47;33.90;42.40
1700;DHT22;847;48.058;7.810;2022-08-03T13:48:14;34.10;42.80
1700;DHT22;847;48.058;7.810;2022-08-03T13:50:41;34.30;40.20
1700;DHT22;847;48.058;7.810;2022-08-03T13:53:08;34.30;42.60
1700;DHT22;847;48.058;7.810;2022-08-03T13:55:34;34.20;44.10
1700;DHT22;847;48.058;7.810;2022-08-03T13:58:02;34.60;43.40
1700;DHT22;847;48.058;7.810;2022-08-03T14:00:32;34.80;42.70
1700;DHT22;847;48.058;7.810;2022-08-03T14:03:02;35.20;43.20
1700;DHT22;847;48.058;7.810;2022-08-03T14:05:29;35.20;43.20
1700;DHT22;847;48.058;7.810;2022-08-03T14:07:56;35.20;41.80
1700;DHT22;847;48.058;7.810;2022-08-03T14:10:25;35.20;42.60
1700;DHT22;847;48.058;7.810;2022-08-03T14:12:52;35.40;42.30
1700;DHT22;847;48.058;7.810;2022-08-03T14:15:21;35.40;40.30
1700;DHT22;847;48.058;7.810;2022-08-03T14:17:48;35.50;40.50
1700;DHT22;847;48.058;7.810;2022-08-03T14:20:15;35.40;40.70
1700;DHT22;847;48.058;7.810;2022-08-03T14:22:42;35.40;41.00
1700;DHT22;847;48.058;7.810;2022-08-03T14:25:09;35.50;38.90
1700;DHT22;847;48.058;7.810;2022-08-03T14:27:35;35.30;39.90
1700;DHT22;847;48.058;7.810;2022-08-03T14:30:03;35.40;40.90
1700;DHT22;847;48.058;7.810;2022-08-03T14:32:31;35.50;40.20
1700;DHT22;847;48.058;7.810;2022-08-03T14:34:58;35.40;39.60
1700;DHT22;847;48.058;7.810;2022-08-03T14:37:24;35.40;40.40
1700;DHT22;847;48.058;7.810;2022-08-03T14:39:51;35.30;40.90
1700;DHT22;847;48.058;7.810;2022-08-03T14:42:18;35.30;41.00
1700;DHT22;847;48.058;7.810;2022-08-03T14:44:45;35.50;40.90
1700;DHT22;847;48.058;7.810;2022-08-03T14:47:12;35.60;41.30
1700;DHT22;847;48.058;7.810;2022-08-03T14:49:41;35.50;40.90
1700;DHT22;847;48.058;7.810;2022-08-03T14:52:08;35.40;40.50
1700;DHT22;847;48.058;7.810;2022-08-03T14:54:34;35.20;42.20
1700;DHT22;847;48.058;7.810;2022-08-03T14:57:01;35.20;42.10
1700;DHT22;847;48.058;7.810;2022-08-03T14:59:28;35.30;42.70
1700;DHT22;847;48.058;7.810;2022-08-03T15:01:55;35.50;42.80
1700;DHT22;847;48.058;7.810;2022-08-03T15:04:21;35.60;43.00
1700;DHT22;847;48.058;7.810;2022-08-03T15:06:49;35.70;41.30
1700;DHT22;847;48.058;7.810;2022-08-03T15:09:16;35.70;42.70
1700;DHT22;847;48.058;7.810;2022-08-03T15:11:43;35.50;41.00
1700;DHT22;847;48.058;7.810;2022-08-03T15:14:10;35.60;41.20
1700;DHT22;847;48.058;7.810;2022-08-03T15:16:36;35.70;40.90
1700;DHT22;847;48.058;7.810;2022-08-03T15:19:03;35.70;40.10
1700;DHT22;847;48.058;7.810;2022-08-03T15:21:30;35.80;40.50
1700;DHT22;847;48.058;7.810;2022-08-03T15:23:59;35.80;40.70
1700;DHT22;847;48.058;7.810;2022-08-03T15:26:25;35.90;40.30
1700;DHT22;847;48.058;7.810;2022-08-03T15:28:52;35.90;39.90
1700;DHT22;847;48.058;7.810;2022-08-03T15:31:20;35.70;40.50
1700;DHT22;847;48.058;7.810;2022-08-03T15:33:47;35.50;40.40
1700;DHT22;847;48.058;7.810;2022-08-03T15:36:15;35.50;40.20
1700;DHT22;847;48.058;7.810;2022-08-03T15:38:42;35.60;40.70
1700;DHT22;847;48.058;7.810;2022-08-03T15:41:10;35.70;41.40
1700;DHT22;847;48.058;7.810;2022-08-03T15:43:37;35.90;41.70
1700;DHT22;847;48.058;7.810;2022-08-03T15:46:04;35.40;41.90
1700;DHT22;847;48.058;7.810;2022-08-03T15:48:30;35.30;42.70
1700;DHT22;847;48.058;7.810;2022-08-03T15:50:57;35.40;43.90
1700;DHT22;847;48.058;7.810;2022-08-03T15:53:24;35.20;44.40
1700;DHT22;847;48.058;7.810;2022-08-03T15:55:51;35.10;44.50
1700;DHT22;847;48.058;7.810;2022-08-03T15:58:19;35.00;44.80
1700;DHT22;847;48.058;7.810;2022-08-03T16:00:45;35.30;44.80
1700;DHT22;847;48.058;7.810;2022-08-03T16:03:12;35.60;45.40
1700;DHT22;847;48.058;7.810;2022-08-03T16:05:39;35.80;43.50
1700;DHT22;847;48.058;7.810;2022-08-03T16:08:06;36.00;44.10
1700;DHT22;847;48.058;7.810;2022-08-03T16:10:32;35.80;44.00
1700;DHT22;847;48.058;7.810;2022-08-03T16:12:59;35.80;43.80
1700;DHT22;847;48.058;7.810;2022-08-03T16:15:28;35.90;43.50
1700;DHT22;847;48.058;7.810;2022-08-03T16:17:54;35.80;42.60
1700;DHT22;847;48.058;7.810;2022-08-03T16:20:21;35.90;42.70
1700;DHT22;847;48.058;7.810;2022-08-03T16:22:48;35.90;41.30
1700;DHT22;847;48.058;7.810;2022-08-03T16:25:16;36.10;42.60
1700;DHT22;847;48.058;7.810;2022-08-03T16:27:43;36.50;42.50
1700;DHT22;847;48.058;7.810;2022-08-03T16:30:12;36.50;41.80
1700;DHT22;847;48.058;7.810;2022-08-03T16:32:42;36.40;42.00
1700;DHT22;847;48.058;7.810;2022-08-03T16:35:09;36.20;42.80
1700;DHT22;847;48.058;7.810;2022-08-03T16:37:36;35.80;43.60